createdAt,value
2023-03-15T00:00:12.484Z,98534.34
2023-03-15T00:02:44.186Z,98521.88
2023-03-15T00:05:15.934Z,98523.66
2023-03-15T00:07:47.619Z,98535.72
2023-03-15T00:10:21.247Z,98539.78
2023-03-15T00:12:52.926Z,98544.19
2023-03-15T00:15:24.609Z,98542.53
2023-03-15T00:17:56.376Z,98546.13
2023-03-15T00:20:28.087Z,98553.47
2023-03-15T00:22:59.775Z,98553.59
2023-03-15T00:25:31.570Z,98566.03
2023-03-15T00:28:03.537Z,98571.44
2023-03-15T00:30:37.217Z,98573.50
2023-03-15T00:33:13.722Z,98573.22
2023-03-15T00:35:45.707Z,98571.72
2023-03-15T00:38:17.351Z,98576.66
2023-03-15T00:40:49.645Z,98569.09
2023-03-15T00:43:21.280Z,98569.50
2023-03-15T00:45:53.097Z,98569.09
2023-03-15T00:48:24.781Z,98575.31
2023-03-15T00:51:08.083Z,98573.00
2023-03-15T00:53:42.429Z,98582.00
2023-03-15T00:56:20.324Z,98588.34
2023-03-15T00:58:55.265Z,98595.28
2023-03-15T01:01:29.817Z,98604.41
2023-03-15T01:04:01.590Z,98608.00
2023-03-15T01:06:33.355Z,98605.53
2023-03-15T01:09:05.845Z,98610.53
2023-03-15T01:11:37.760Z,98606.72
2023-03-15T01:14:10.059Z,98616.38
2023-03-15T01:16:42.202Z,98615.22
2023-03-15T01:19:15.328Z,98619.94
2023-03-15T01:21:47.992Z,98612.56
2023-03-15T01:24:22.100Z,98605.00
2023-03-15T01:26:55.236Z,98613.38
2023-03-15T01:29:27.521Z,98614.19
2023-03-15T01:31:59.222Z,98614.34
2023-03-15T01:34:30.967Z,98624.50
2023-03-15T01:37:05.614Z,98628.47
2023-03-15T01:39:43.036Z,98628.84
2023-03-15T01:42:14.710Z,98629.69
2023-03-15T01:45:00.093Z,98630.34
2023-03-15T01:47:32.814Z,98632.81
2023-03-15T01:50:11.454Z,98630.88
2023-03-15T01:52:43.644Z,98625.25
2023-03-15T01:55:22.000Z,98612.72
2023-03-15T01:58:24.179Z,98603.06
2023-03-15T02:00:56.103Z,98611.56
2023-03-15T02:03:35.918Z,98624.66
2023-03-15T02:06:10.197Z,98625.34
2023-03-15T02:09:04.617Z,98622.84
2023-03-15T02:11:40.564Z,98631.84
2023-03-15T02:14:14.485Z,98644.38
2023-03-15T02:16:49.697Z,98648.63
2023-03-15T02:19:57.044Z,98663.00
2023-03-15T02:23:07.208Z,98672.63
2023-03-15T02:25:49.177Z,98669.03
2023-03-15T02:28:20.950Z,98666.28
2023-03-15T02:30:52.617Z,98674.13
2023-03-15T02:33:26.251Z,98675.25
2023-03-15T02:36:10.119Z,98685.00
2023-03-15T02:38:42.093Z,98686.00
2023-03-15T02:41:17.894Z,98679.41
2023-03-15T02:43:53.284Z,98674.50
2023-03-15T02:46:25.118Z,98683.44
2023-03-15T02:48:57.329Z,98693.06
2023-03-15T02:51:33.425Z,98692.09
2023-03-15T02:54:06.330Z,98701.47
2023-03-15T02:56:38.050Z,98702.13
2023-03-15T02:59:09.819Z,98706.00
2023-03-15T03:01:42.204Z,98702.56
2023-03-15T03:04:14.027Z,98703.66
2023-03-15T03:06:46.197Z,98713.34
2023-03-15T03:09:22.578Z,98720.03
2023-03-15T03:11:54.358Z,98720.72
2023-03-15T03:14:26.086Z,98723.34
2023-03-15T03:16:58.021Z,98726.41
2023-03-15T03:19:29.833Z,98723.94
2023-03-15T03:22:01.538Z,98735.34
2023-03-15T03:24:33.812Z,98740.28
2023-03-15T03:27:08.979Z,98747.16
2023-03-15T03:29:43.091Z,98747.97
2023-03-15T03:32:15.869Z,98760.38
2023-03-15T03:34:50.908Z,98759.41
2023-03-15T03:37:26.628Z,98752.94
2023-03-15T03:40:09.156Z,98747.84
2023-03-15T03:42:41.633Z,98748.53
2023-03-15T03:45:13.523Z,98747.53
2023-03-15T03:47:48.555Z,98760.66
2023-03-15T03:50:21.102Z,98755.44
2023-03-15T03:52:53.882Z,98756.94
2023-03-15T03:55:30.148Z,98750.72
2023-03-15T03:58:01.940Z,98761.88
2023-03-15T04:00:59.815Z,98771.66
2023-03-15T04:03:36.925Z,98772.91
2023-03-15T04:06:19.130Z,98784.50
2023-03-15T04:08:52.689Z,98776.28
2023-03-15T04:11:39.034Z,98796.66
2023-03-15T04:14:14.399Z,98801.50
2023-03-15T04:16:48.765Z,98816.19
2023-03-15T04:19:23.211Z,98812.09
2023-03-15T04:21:55.852Z,98819.66
2023-03-15T04:24:45.519Z,98826.38
2023-03-15T04:27:40.379Z,98829.25
2023-03-15T04:30:32.014Z,98828.84
2023-03-15T04:33:32.614Z,98835.56
2023-03-15T04:36:23.802Z,98849.72
2023-03-15T04:39:15.774Z,98850.94
2023-03-15T04:41:51.079Z,98849.72
2023-03-15T04:44:34.797Z,98856.47
2023-03-15T04:47:32.836Z,98861.56
2023-03-15T04:50:34.220Z,98867.75
2023-03-15T04:53:29.107Z,98871.72
2023-03-15T04:56:19.147Z,98881.53
2023-03-15T04:59:04.299Z,98886.47
2023-03-15T05:01:58.887Z,98883.00
2023-03-15T05:04:39.496Z,98888.94
2023-03-15T05:07:29.791Z,98891.16
2023-03-15T05:10:33.677Z,98899.41
2023-03-15T05:13:29.680Z,98896.50
2023-03-15T05:16:18.525Z,98892.81
2023-03-15T05:19:00.121Z,98894.06
2023-03-15T05:22:03.830Z,98899.41
2023-03-15T05:24:54.362Z,98907.38
2023-03-15T05:27:46.643Z,98919.50
2023-03-15T05:30:36.960Z,98921.44
2023-03-15T05:33:31.619Z,98917.28
2023-03-15T05:36:17.448Z,98922.81
2023-03-15T05:39:04.409Z,98929.81
2023-03-15T05:42:06.667Z,98941.38
2023-03-15T05:45:04.266Z,98935.31
2023-03-15T05:47:47.710Z,98947.00
2023-03-15T05:50:37.780Z,98952.78
2023-03-15T05:53:42.444Z,98959.38
2023-03-15T05:56:30.288Z,98958.41
2023-03-15T05:59:20.557Z,98961.84
2023-03-15T06:02:10.550Z,98973.84
2023-03-15T06:04:50.918Z,98983.16
2023-03-15T06:07:26.792Z,98991.56
2023-03-15T06:09:58.547Z,98988.97
2023-03-15T06:12:31.354Z,98996.00
2023-03-15T06:15:03.176Z,99003.16
2023-03-15T06:17:34.964Z,98995.47
2023-03-15T06:20:07.175Z,98996.47
2023-03-15T06:22:39.306Z,98999.84
2023-03-15T06:25:20.683Z,98999.53
2023-03-15T06:27:52.464Z,99004.28
2023-03-15T06:30:26.084Z,99000.66
2023-03-15T06:33:01.419Z,99003.47
2023-03-15T06:35:37.064Z,99002.66
2023-03-15T06:38:11.854Z,99015.88
2023-03-15T06:40:43.979Z,99017.69
2023-03-15T06:43:19.558Z,99030.63
2023-03-15T06:45:53.614Z,99025.91
2023-03-15T06:48:26.408Z,99027.19
2023-03-15T06:50:58.361Z,99025.50
2023-03-15T06:53:30.507Z,99019.06
2023-03-15T06:56:02.227Z,99026.41
2023-03-15T06:58:34.074Z,99033.50
2023-03-15T07:01:06.126Z,99030.78
2023-03-15T07:03:37.880Z,99036.19
2023-03-15T07:06:10.063Z,99038.53
2023-03-15T07:08:41.841Z,99050.19
2023-03-15T07:11:14.040Z,99045.22
2023-03-15T07:13:45.869Z,99061.03
2023-03-15T07:16:17.631Z,99049.72
2023-03-15T07:18:50.379Z,99061.34
2023-03-15T07:21:22.276Z,99075.69
2023-03-15T07:23:54.328Z,99071.59
2023-03-15T07:26:26.054Z,99077.75
2023-03-15T07:29:01.809Z,99079.38
2023-03-15T07:31:33.599Z,99089.63
2023-03-15T07:34:05.325Z,99091.03
2023-03-15T07:36:37.060Z,99087.97
2023-03-15T07:39:09.101Z,99098.00
2023-03-15T07:41:40.858Z,99095.91
2023-03-15T07:44:20.489Z,99093.03
2023-03-15T07:46:52.620Z,99101.03
2023-03-15T07:49:25.000Z,99107.94
2023-03-15T07:51:56.752Z,99101.09
2023-03-15T07:54:31.784Z,99109.47
2023-03-15T07:57:03.847Z,99102.03
2023-03-15T07:59:35.891Z,99094.91
2023-03-15T08:02:10.025Z,99103.31
2023-03-15T08:04:41.944Z,99098.22
2023-03-15T08:07:15.671Z,99097.34
2023-03-15T08:09:48.378Z,99091.84
2023-03-15T08:12:20.177Z,99094.72
2023-03-15T08:14:53.039Z,99087.50
2023-03-15T08:17:26.725Z,99097.63
2023-03-15T08:19:58.381Z,99095.72
2023-03-15T08:22:30.362Z,99097.00
2023-03-15T08:25:02.108Z,99101.09
2023-03-15T08:27:33.854Z,99101.25
2023-03-15T08:30:06.132Z,99101.06
2023-03-15T08:32:38.881Z,99102.09
2023-03-15T08:35:15.133Z,99115.63
2023-03-15T08:37:48.016Z,99116.84
2023-03-15T08:40:24.108Z,99110.66
2023-03-15T08:42:56.723Z,99113.41
2023-03-15T08:45:28.448Z,99111.69
2023-03-15T08:48:01.145Z,99108.00
2023-03-15T08:50:32.947Z,99116.03
2023-03-15T08:53:04.664Z,99103.13
2023-03-15T08:55:36.932Z,99106.78
2023-03-15T08:58:08.963Z,99105.16
2023-03-15T09:00:40.638Z,99108.50
2023-03-15T09:03:12.437Z,99109.53
2023-03-15T09:05:44.497Z,99114.50
2023-03-15T09:08:21.059Z,99112.44
2023-03-15T09:10:56.925Z,99116.75
2023-03-15T09:13:29.140Z,99114.72
2023-03-15T09:16:00.815Z,99122.88
2023-03-15T09:18:34.032Z,99129.16
2023-03-15T09:21:05.771Z,99117.22
2023-03-15T09:23:37.525Z,99126.44
2023-03-15T09:26:09.232Z,99124.88
2023-03-15T09:28:40.959Z,99123.25
2023-03-15T09:31:12.659Z,99121.50
2023-03-15T09:33:46.432Z,99129.97
2023-03-15T09:36:18.174Z,99118.31
2023-03-15T09:38:50.007Z,99121.19
2023-03-15T09:41:46.300Z,99114.50
2023-03-15T09:44:29.108Z,99118.66
2023-03-15T09:47:00.741Z,99129.75
2023-03-15T09:49:52.176Z,99124.94
2023-03-15T09:52:51.468Z,99126.47
2023-03-15T09:55:28.276Z,99121.41
2023-03-15T09:58:16.187Z,99122.41
2023-03-15T10:00:59.290Z,99123.78
2023-03-15T10:03:43.110Z,99112.44
2023-03-15T10:06:24.393Z,99119.03
2023-03-15T10:09:01.869Z,99126.44
2023-03-15T10:12:07.500Z,99126.38
2023-03-15T10:14:39.341Z,99118.50
2023-03-15T10:17:21.084Z,99123.03
2023-03-15T10:19:59.088Z,99133.16
2023-03-15T10:22:45.886Z,99131.84
2023-03-15T10:25:29.970Z,99136.28
2023-03-15T10:28:12.266Z,99133.59
2023-03-15T10:30:48.388Z,99133.78
2023-03-15T10:33:37.829Z,99137.72
2023-03-15T10:36:22.380Z,99136.03
2023-03-15T10:38:54.065Z,99139.59
2023-03-15T10:41:29.968Z,99141.41
2023-03-15T10:44:05.291Z,99137.56
2023-03-15T10:46:37.812Z,99139.41
2023-03-15T10:49:19.980Z,99131.03
2023-03-15T10:51:51.647Z,99121.34
2023-03-15T10:54:25.031Z,99137.19
2023-03-15T10:57:04.244Z,99136.78
2023-03-15T10:59:36.327Z,99138.25
2023-03-15T11:02:25.576Z,99122.22
2023-03-15T11:05:04.464Z,99123.03
2023-03-15T11:07:36.716Z,99111.69
2023-03-15T11:10:21.348Z,99116.19
2023-03-15T11:13:14.583Z,99117.13
2023-03-15T11:16:15.323Z,99124.06
2023-03-15T11:19:01.480Z,99146.34
2023-03-15T11:21:36.791Z,99132.91
2023-03-15T11:24:22.549Z,99125.22
2023-03-15T11:27:03.721Z,99137.31
2023-03-15T11:29:37.220Z,99128.41
2023-03-15T11:32:21.346Z,99123.66
2023-03-15T11:34:52.912Z,99131.03
2023-03-15T11:37:49.853Z,99125.50
2023-03-15T11:40:24.943Z,99125.03
2023-03-15T11:43:08.822Z,99131.75
2023-03-15T11:46:00.598Z,99128.34
2023-03-15T11:48:48.802Z,99127.34
2023-03-15T11:51:20.729Z,99123.09
2023-03-15T11:54:05.632Z,99136.47
2023-03-15T11:56:43.276Z,99116.97
2023-03-15T11:59:20.551Z,99113.88
2023-03-15T12:02:13.298Z,99119.81
2023-03-15T12:04:47.015Z,99115.69
2023-03-15T12:07:24.520Z,99111.91
2023-03-15T12:10:05.190Z,99122.38
2023-03-15T12:12:37.860Z,99123.44
2023-03-15T12:15:18.823Z,99116.72
2023-03-15T12:17:51.705Z,99115.91
2023-03-15T12:20:42.842Z,99109.31
2023-03-15T12:23:17.483Z,99118.69
2023-03-15T12:25:55.618Z,99113.28
2023-03-15T12:28:34.143Z,99121.00
2023-03-15T12:31:13.067Z,99123.44
2023-03-15T12:33:58.719Z,99132.47
2023-03-15T12:36:35.215Z,99125.41
2023-03-15T12:39:09.547Z,99128.94
2023-03-15T12:41:50.044Z,99150.38
2023-03-15T12:44:33.890Z,99150.03
2023-03-15T12:47:07.146Z,99159.41
2023-03-15T12:49:44.122Z,99153.28
2023-03-15T12:52:18.598Z,99159.06
2023-03-15T12:54:54.712Z,99161.19
2023-03-15T12:57:35.851Z,99160.88
2023-03-15T13:00:21.455Z,99168.72
2023-03-15T13:03:04.485Z,99167.69
2023-03-15T13:06:08.671Z,99165.13
2023-03-15T13:09:04.911Z,99174.25
2023-03-15T13:12:15.220Z,99180.63
2023-03-15T13:14:58.508Z,99166.16
2023-03-15T13:17:49.510Z,99171.47
2023-03-15T13:20:42.576Z,99174.78
2023-03-15T13:23:18.703Z,99171.72
2023-03-15T13:26:20.731Z,99163.81
2023-03-15T13:29:20.076Z,99169.06
2023-03-15T13:32:22.951Z,99173.66
2023-03-15T13:34:57.252Z,99183.34
2023-03-15T13:37:32.028Z,99181.03
2023-03-15T13:40:11.896Z,99185.25
2023-03-15T13:42:43.711Z,99180.06
2023-03-15T13:45:16.963Z,99194.97
2023-03-15T13:47:48.923Z,99208.78
2023-03-15T13:50:21.794Z,99214.00
2023-03-15T13:52:55.525Z,99225.28
2023-03-15T13:55:32.673Z,99250.16
2023-03-15T13:58:09.287Z,99225.94
2023-03-15T14:00:41.506Z,99227.66
2023-03-15T14:03:17.447Z,99227.25
2023-03-15T14:05:52.580Z,99232.38
2023-03-15T14:08:31.525Z,99238.31
2023-03-15T14:11:40.614Z,99252.38
2023-03-15T14:14:32.407Z,99246.88
2023-03-15T14:17:17.962Z,99245.78
2023-03-15T14:20:08.727Z,99247.69
2023-03-15T14:22:42.013Z,99235.31
2023-03-15T14:25:22.234Z,99253.91
2023-03-15T14:27:54.216Z,99251.00
2023-03-15T14:30:26.182Z,99262.53
2023-03-15T14:33:04.752Z,99261.41
2023-03-15T14:35:36.560Z,99258.28
2023-03-15T14:38:17.966Z,99250.72
2023-03-15T14:40:51.837Z,99248.00
2023-03-15T14:43:23.900Z,99241.16
2023-03-15T14:45:55.723Z,99241.84
2023-03-15T14:48:30.085Z,99237.97
2023-03-15T14:51:02.103Z,99242.44
2023-03-15T14:53:37.592Z,99243.44
2023-03-15T14:56:13.579Z,99236.81
2023-03-15T14:58:45.236Z,99243.03
2023-03-15T15:01:22.640Z,99255.25
2023-03-15T15:03:59.739Z,99258.19
2023-03-15T15:06:32.016Z,99269.91
2023-03-15T15:09:05.889Z,99258.47
2023-03-15T15:11:37.771Z,99264.25
2023-03-15T15:14:15.576Z,99266.03
2023-03-15T15:16:47.616Z,99266.44
2023-03-15T15:19:19.579Z,99261.91
2023-03-15T15:21:51.734Z,99265.91
2023-03-15T15:24:26.550Z,99260.69
2023-03-15T15:26:58.085Z,99266.94
2023-03-15T15:29:29.716Z,99270.50
2023-03-15T15:32:01.494Z,99268.06
2023-03-15T15:34:34.060Z,99272.47
2023-03-15T15:37:06.073Z,99267.81
2023-03-15T15:39:38.260Z,99274.56
2023-03-15T15:42:11.025Z,99288.75
2023-03-15T15:44:42.760Z,99281.44
2023-03-15T15:47:14.477Z,99282.41
2023-03-15T15:49:46.173Z,99277.75
2023-03-15T15:52:17.880Z,99271.38
2023-03-15T15:54:49.578Z,99277.75
2023-03-15T15:57:26.552Z,99274.97
2023-03-15T15:59:58.333Z,99277.31
2023-03-15T16:02:30.052Z,99274.59
2023-03-15T16:05:01.802Z,99280.22
2023-03-15T16:07:33.597Z,99281.91
2023-03-15T16:10:06.565Z,99297.59
2023-03-15T16:12:38.316Z,99298.84
2023-03-15T16:15:14.437Z,99295.25
2023-03-15T16:17:46.743Z,99303.38
2023-03-15T16:20:19.694Z,99301.19
2023-03-15T16:22:57.713Z,99309.31
2023-03-15T16:25:33.831Z,99318.13
2023-03-15T16:28:07.852Z,99315.47
2023-03-15T16:30:40.774Z,99318.63
2023-03-15T16:33:16.453Z,99319.56
2023-03-15T16:35:50.266Z,99332.47
2023-03-15T16:38:26.402Z,99351.84
2023-03-15T16:40:59.813Z,99366.00
2023-03-15T16:43:31.550Z,99371.53
2023-03-15T16:46:13.707Z,99383.91
2023-03-15T16:48:45.618Z,99388.88
2023-03-15T16:51:17.470Z,99402.56
2023-03-15T16:53:49.206Z,99408.13
2023-03-15T16:56:21.004Z,99411.09
2023-03-15T16:58:54.078Z,99413.59
2023-03-15T17:01:25.903Z,99421.78
2023-03-15T17:03:58.184Z,99417.53
2023-03-15T17:06:31.414Z,99421.06
2023-03-15T17:09:09.297Z,99417.16
2023-03-15T17:11:43.435Z,99414.09
2023-03-15T17:14:19.571Z,99413.34
2023-03-15T17:16:51.238Z,99402.09
2023-03-15T17:19:23.292Z,99410.63
2023-03-15T17:21:55.008Z,99411.00
2023-03-15T17:24:26.745Z,99407.56
2023-03-15T17:26:58.777Z,99415.50
2023-03-15T17:29:30.755Z,99418.94
2023-03-15T17:32:02.514Z,99424.13
2023-03-15T17:34:34.230Z,99419.03
2023-03-15T17:37:05.902Z,99416.41
2023-03-15T17:39:38.191Z,99414.25
2023-03-15T17:42:13.498Z,99426.34
2023-03-15T17:44:45.250Z,99428.13
2023-03-15T17:47:16.956Z,99422.34
2023-03-15T17:49:48.763Z,99433.84
2023-03-15T17:52:21.039Z,99450.22
2023-03-15T17:54:52.683Z,99454.72
2023-03-15T17:57:24.628Z,99448.13
2023-03-15T17:59:56.339Z,99450.38
2023-03-15T18:02:28.326Z,99453.47
2023-03-15T18:05:00.517Z,99456.91
2023-03-15T18:07:32.334Z,99461.41
2023-03-15T18:10:04.360Z,99463.41
2023-03-15T18:12:36.110Z,99471.81
2023-03-15T18:15:11.078Z,99473.50
2023-03-15T18:17:42.874Z,99474.44
2023-03-15T18:20:15.557Z,99483.22
2023-03-15T18:22:48.036Z,99487.00
2023-03-15T18:25:22.808Z,99485.34
2023-03-15T18:27:54.445Z,99500.88
2023-03-15T18:30:28.618Z,99486.03
2023-03-15T18:33:00.798Z,99496.81
2023-03-15T18:35:34.801Z,99491.97
2023-03-15T18:38:06.584Z,99497.75
2023-03-15T18:40:38.280Z,99506.78
2023-03-15T18:43:14.580Z,99503.13
2023-03-15T18:45:46.380Z,99508.09
2023-03-15T18:48:19.578Z,99512.16
2023-03-15T18:50:52.800Z,99518.44
2023-03-15T18:53:24.425Z,99517.56
2023-03-15T18:55:56.112Z,99519.47
2023-03-15T18:58:27.777Z,99521.13
2023-03-15T19:00:59.838Z,99522.69
2023-03-15T19:03:31.529Z,99520.78
2023-03-15T19:06:05.970Z,99522.34
2023-03-15T19:08:37.878Z,99519.63
2023-03-15T19:11:11.328Z,99530.06
2023-03-15T19:13:43.505Z,99535.28
2023-03-15T19:16:16.749Z,99535.72
2023-03-15T19:18:49.615Z,99539.63
2023-03-15T19:21:21.486Z,99539.00
2023-03-15T19:23:53.289Z,99548.00
2023-03-15T19:26:25.136Z,99537.09
2023-03-15T19:28:56.902Z,99541.69
2023-03-15T19:31:29.323Z,99547.75
2023-03-15T19:34:01.512Z,99549.41
2023-03-15T19:36:33.195Z,99546.91
2023-03-15T19:39:07.140Z,99548.56
2023-03-15T19:41:39.195Z,99553.19
2023-03-15T19:44:11.313Z,99558.63
2023-03-15T19:46:43.117Z,99560.19
2023-03-15T19:49:14.864Z,99563.53
2023-03-15T19:51:46.619Z,99566.00
2023-03-15T19:54:18.628Z,99566.81
2023-03-15T19:56:50.818Z,99572.88
2023-03-15T19:59:25.204Z,99576.22
2023-03-15T20:01:57.063Z,99581.31
2023-03-15T20:04:28.870Z,99581.53
2023-03-15T20:07:03.585Z,99582.81
2023-03-15T20:09:38.888Z,99584.59
2023-03-15T20:12:12.733Z,99589.81
2023-03-15T20:14:44.515Z,99585.03
2023-03-15T20:17:16.371Z,99600.78
2023-03-15T20:19:48.073Z,99593.19
2023-03-15T20:22:19.958Z,99601.22
2023-03-15T20:24:51.760Z,99596.34
2023-03-15T20:27:23.456Z,99601.56
2023-03-15T20:29:56.626Z,99606.06
2023-03-15T20:32:28.686Z,99606.19
2023-03-15T20:35:02.333Z,99614.94
2023-03-15T20:37:34.917Z,99612.53
2023-03-15T20:40:09.108Z,99617.03
2023-03-15T20:42:41.844Z,99629.34
2023-03-15T20:45:14.053Z,99623.63
2023-03-15T20:47:45.931Z,99622.78
2023-03-15T20:50:17.640Z,99631.53
2023-03-15T20:52:49.342Z,99638.03
2023-03-15T20:55:21.204Z,99636.25
2023-03-15T20:57:53.503Z,99638.03
2023-03-15T21:00:27.190Z,99645.00
2023-03-15T21:02:58.951Z,99642.53
2023-03-15T21:05:32.370Z,99646.06
2023-03-15T21:08:04.382Z,99647.75
2023-03-15T21:10:37.398Z,99651.88
2023-03-15T21:13:10.336Z,99656.16
2023-03-15T21:15:46.459Z,99655.22
2023-03-15T21:18:18.360Z,99657.94
2023-03-15T21:21:05.266Z,99665.75
2023-03-15T21:23:37.060Z,99664.91
2023-03-15T21:26:11.031Z,99666.19
2023-03-15T21:28:43.139Z,99661.91
2023-03-15T21:31:15.507Z,99670.66
2023-03-15T21:33:49.220Z,99662.84
2023-03-15T21:36:22.486Z,99662.13
2023-03-15T21:38:54.193Z,99672.66
2023-03-15T21:41:25.940Z,99676.94
2023-03-15T21:43:57.663Z,99681.31
2023-03-15T21:46:29.477Z,99677.03
2023-03-15T21:49:01.800Z,99678.81
2023-03-15T21:51:34.200Z,99675.25
2023-03-15T21:54:05.893Z,99677.78
2023-03-15T21:56:37.594Z,99686.41
2023-03-15T21:59:09.516Z,99685.69
2023-03-15T22:01:41.813Z,99686.84
2023-03-15T22:04:13.528Z,99693.19
2023-03-15T22:06:45.236Z,99694.25
2023-03-15T22:09:16.891Z,99691.75
2023-03-15T22:11:48.928Z,99697.78
2023-03-15T22:14:21.797Z,99699.56
2023-03-15T22:16:53.606Z,99701.97
2023-03-15T22:19:25.387Z,99706.34
2023-03-15T22:21:57.743Z,99703.81
2023-03-15T22:24:29.437Z,99703.81
2023-03-15T22:27:01.312Z,99716.13
2023-03-15T22:29:33.466Z,99705.69
2023-03-15T22:32:06.217Z,99712.06
2023-03-15T22:34:37.918Z,99718.19
2023-03-15T22:37:09.688Z,99715.91
2023-03-15T22:39:42.936Z,99721.31
2023-03-15T22:42:14.635Z,99715.19
2023-03-15T22:44:46.271Z,99717.78
2023-03-15T22:47:18.052Z,99715.31
2023-03-15T22:49:49.714Z,99719.03
2023-03-15T22:52:22.964Z,99726.00
2023-03-15T22:54:54.639Z,99721.88
2023-03-15T22:57:26.335Z,99729.03
2023-03-15T22:59:58.688Z,99725.59
2023-03-15T23:02:33.015Z,99732.69
2023-03-15T23:05:05.903Z,99744.03
2023-03-15T23:07:38.056Z,99741.53
2023-03-15T23:10:11.366Z,99741.53
2023-03-15T23:12:43.194Z,99739.00
2023-03-15T23:15:14.983Z,99743.28
2023-03-15T23:17:46.945Z,99739.84
2023-03-15T23:20:19.818Z,99751.94
2023-03-15T23:22:51.865Z,99754.53
2023-03-15T23:25:25.032Z,99756.31
2023-03-15T23:27:57.385Z,99761.72
2023-03-15T23:30:35.136Z,99760.91
2023-03-15T23:33:08.543Z,99756.72
2023-03-15T23:35:41.942Z,99761.91
2023-03-15T23:38:13.685Z,99763.81
2023-03-15T23:40:45.334Z,99756.09
2023-03-15T23:43:17.072Z,99761.31
2023-03-15T23:45:48.777Z,99765.06
2023-03-15T23:48:20.473Z,99766.06
2023-03-15T23:50:56.937Z,99770.66
2023-03-15T23:53:29.076Z,99773.25
2023-03-15T23:56:01.451Z,99778.56
2023-03-15T23:58:33.201Z,99775.31
